sensor_id;sensor_type;location;lat;lon;timestamp;P1;durP1;ratioP1;P2;durP2;ratioP2
22646;SDS011;11490;42.726;23.268;2023-03-26T00:00:07;1.40;;;1.30;;
22646;SDS011;11490;42.726;23.268;2023-03-26T00:02:33;1.40;;;1.30;;
22646;SDS011;11490;42.726;23.268;2023-03-26T00:04:59;1.67;;;1.55;;
22646;SDS011;11490;42.726;23.268;2023-03-26T00:07:24;1.75;;;1.48;;
22646;SDS011;11490;42.726;23.268;2023-03-26T00:09:52;1.85;;;1.75;;
22646;SDS011;11490;42.726;23.268;2023-03-26T00:12:17;1.15;;;1.10;;
22646;SDS011;11490;42.726;23.268;2023-03-26T00:14:42;1.30;;;1.20;;
22646;SDS011;11490;42.726;23.268;2023-03-26T00:17:09;1.23;;;1.20;;
22646;SDS011;11490;42.726;23.268;2023-03-26T00:19:34;1.40;;;1.30;;
22646;SDS011;11490;42.726;23.268;2023-03-26T00:22:01;1.50;;;1.40;;
22646;SDS011;11490;42.726;23.268;2023-03-26T00:24:27;1.40;;;1.30;;
22646;SDS011;11490;42.726;23.268;2023-03-26T00:26:53;1.00;;;1.00;;
22646;SDS011;11490;42.726;23.268;2023-03-26T00:29:19;1.30;;;1.20;;
22646;SDS011;11490;42.726;23.268;2023-03-26T00:31:46;1.73;;;1.63;;
22646;SDS011;11490;42.726;23.268;2023-03-26T00:34:12;1.70;;;1.48;;
22646;SDS011;11490;42.726;23.268;2023-03-26T00:36:39;5.75;;;2.78;;
22646;SDS011;11490;42.726;23.268;2023-03-26T00:39:06;2.10;;;1.50;;
22646;SDS011;11490;42.726;23.268;2023-03-26T00:41:32;2.65;;;1.75;;
22646;SDS011;11490;42.726;23.268;2023-03-26T00:44:00;2.40;;;1.88;;
22646;SDS011;11490;42.726;23.268;2023-03-26T00:46:27;2.55;;;2.03;;
22646;SDS011;11490;42.726;23.268;2023-03-26T00:48:53;2.65;;;1.98;;
22646;SDS011;11490;42.726;23.268;2023-03-26T00:51:22;4.13;;;2.55;;
22646;SDS011;11490;42.726;23.268;2023-03-26T00:53:49;1.60;;;1.50;;
22646;SDS011;11490;42.726;23.268;2023-03-26T00:56:14;1.38;;;1.25;;
22646;SDS011;11490;42.726;23.268;2023-03-26T00:58:40;1.60;;;1.45;;
22646;SDS011;11490;42.726;23.268;2023-03-26T01:01:08;1.48;;;1.38;;
22646;SDS011;11490;42.726;23.268;2023-03-26T01:03:39;1.52;;;1.42;;
22646;SDS011;11490;42.726;23.268;2023-03-26T01:06:07;1.38;;;1.27;;
22646;SDS011;11490;42.726;23.268;2023-03-26T01:08:47;4.30;;;1.88;;
22646;SDS011;11490;42.726;23.268;2023-03-26T01:11:16;2.05;;;1.70;;
22646;SDS011;11490;42.726;23.268;2023-03-26T01:13:59;2.88;;;2.20;;
22646;SDS011;11490;42.726;23.268;2023-03-26T01:22:07;2.72;;;1.30;;
22646;SDS011;11490;42.726;23.268;2023-03-26T01:24:35;1.50;;;1.40;;
22646;SDS011;11490;42.726;23.268;2023-03-26T01:27:12;1.55;;;1.40;;
22646;SDS011;11490;42.726;23.268;2023-03-26T01:38:05;1.02;;;1.02;;
22646;SDS011;11490;42.726;23.268;2023-03-26T01:46:15;1.42;;;1.33;;
22646;SDS011;11490;42.726;23.268;2023-03-26T01:48:44;1.38;;;1.27;;
22646;SDS011;11490;42.726;23.268;2023-03-26T01:51:11;1.45;;;1.35;;
22646;SDS011;11490;42.726;23.268;2023-03-26T01:53:42;1.40;;;1.30;;
22646;SDS011;11490;42.726;23.268;2023-03-26T02:06:49;1.58;;;1.48;;
22646;SDS011;11490;42.726;23.268;2023-03-26T02:09:23;1.52;;;1.42;;
22646;SDS011;11490;42.726;23.268;2023-03-26T02:11:54;1.90;;;1.60;;
22646;SDS011;11490;42.726;23.268;2023-03-26T02:14:21;1.60;;;1.50;;
22646;SDS011;11490;42.726;23.268;2023-03-26T02:16:47;1.42;;;1.33;;
22646;SDS011;11490;42.726;23.268;2023-03-26T02:19:12;1.67;;;1.58;;
22646;SDS011;11490;42.726;23.268;2023-03-26T02:21:46;1.58;;;1.40;;
22646;SDS011;11490;42.726;23.268;2023-03-26T02:24:14;3.28;;;1.63;;
22646;SDS011;11490;42.726;23.268;2023-03-26T02:26:40;1.50;;;1.40;;
22646;SDS011;11490;42.726;23.268;2023-03-26T02:29:05;1.80;;;1.55;;
22646;SDS011;11490;42.726;23.268;2023-03-26T02:31:31;1.42;;;1.33;;
22646;SDS011;11490;42.726;23.268;2023-03-26T02:33:56;1.63;;;1.52;;
22646;SDS011;11490;42.726;23.268;2023-03-26T02:36:22;1.50;;;1.40;;
22646;SDS011;11490;42.726;23.268;2023-03-26T02:38:51;1.45;;;1.35;;
22646;SDS011;11490;42.726;23.268;2023-03-26T02:41:17;1.73;;;1.55;;
22646;SDS011;11490;42.726;23.268;2023-03-26T02:43:42;1.77;;;1.52;;
22646;SDS011;11490;42.726;23.268;2023-03-26T02:46:08;2.03;;;1.63;;
22646;SDS011;11490;42.726;23.268;2023-03-26T02:48:33;1.65;;;1.50;;
22646;SDS011;11490;42.726;23.268;2023-03-26T02:51:03;2.05;;;1.60;;
22646;SDS011;11490;42.726;23.268;2023-03-26T02:53:29;1.70;;;1.38;;
22646;SDS011;11490;42.726;23.268;2023-03-26T02:55:54;1.50;;;1.40;;
22646;SDS011;11490;42.726;23.268;2023-03-26T02:58:20;1.60;;;1.48;;
22646;SDS011;11490;42.726;23.268;2023-03-26T03:00:49;1.80;;;1.65;;
22646;SDS011;11490;42.726;23.268;2023-03-26T03:03:18;2.00;;;1.67;;
22646;SDS011;11490;42.726;23.268;2023-03-26T03:05:57;1.48;;;1.38;;
22646;SDS011;11490;42.726;23.268;2023-03-26T03:08:23;2.92;;;1.90;;
22646;SDS011;11490;42.726;23.268;2023-03-26T03:10:57;1.75;;;1.65;;
22646;SDS011;11490;42.726;23.268;2023-03-26T03:13:24;2.08;;;1.70;;
22646;SDS011;11490;42.726;23.268;2023-03-26T03:15:49;1.67;;;1.58;;
22646;SDS011;11490;42.726;23.268;2023-03-26T03:18:14;2.13;;;1.92;;
22646;SDS011;11490;42.726;23.268;2023-03-26T03:20:40;4.50;;;2.17;;
22646;SDS011;11490;42.726;23.268;2023-03-26T03:23:05;1.80;;;1.70;;
22646;SDS011;11490;42.726;23.268;2023-03-26T03:25:31;2.50;;;2.30;;
22646;SDS011;11490;42.726;23.268;2023-03-26T03:27:57;2.88;;;2.50;;
22646;SDS011;11490;42.726;23.268;2023-03-26T03:30:23;2.83;;;2.10;;
22646;SDS011;11490;42.726;23.268;2023-03-26T03:32:48;7.05;;;2.13;;
22646;SDS011;11490;42.726;23.268;2023-03-26T03:35:14;2.22;;;1.90;;
22646;SDS011;11490;42.726;23.268;2023-03-26T03:37:39;2.38;;;2.05;;
22646;SDS011;11490;42.726;23.268;2023-03-26T03:40:05;2.30;;;1.98;;
22646;SDS011;11490;42.726;23.268;2023-03-26T03:42:31;3.58;;;2.03;;
22646;SDS011;11490;42.726;23.268;2023-03-26T03:44:57;3.60;;;2.42;;
22646;SDS011;11490;42.726;23.268;2023-03-26T03:47:22;3.15;;;2.25;;
22646;SDS011;11490;42.726;23.268;2023-03-26T03:49:47;2.88;;;2.20;;
22646;SDS011;11490;42.726;23.268;2023-03-26T03:52:14;3.30;;;2.53;;
22646;SDS011;11490;42.726;23.268;2023-03-26T03:54:40;4.03;;;2.60;;
22646;SDS011;11490;42.726;23.268;2023-03-26T03:57:05;2.95;;;2.63;;
22646;SDS011;11490;42.726;23.268;2023-03-26T03:59:31;3.90;;;2.80;;
22646;SDS011;11490;42.726;23.268;2023-03-26T04:01:56;2.20;;;2.00;;
22646;SDS011;11490;42.726;23.268;2023-03-26T04:04:22;4.68;;;2.30;;
22646;SDS011;11490;42.726;23.268;2023-03-26T04:06:49;2.88;;;2.38;;
22646;SDS011;11490;42.726;23.268;2023-03-26T04:09:15;2.97;;;2.45;;
22646;SDS011;11490;42.726;23.268;2023-03-26T04:11:40;4.13;;;2.92;;
22646;SDS011;11490;42.726;23.268;2023-03-26T04:14:06;3.17;;;2.58;;
22646;SDS011;11490;42.726;23.268;2023-03-26T04:16:31;4.85;;;2.90;;
22646;SDS011;11490;42.726;23.268;2023-03-26T04:18:56;3.33;;;2.63;;
22646;SDS011;11490;42.726;23.268;2023-03-26T04:21:22;4.15;;;2.38;;
22646;SDS011;11490;42.726;23.268;2023-03-26T04:23:48;3.55;;;2.42;;
22646;SDS011;11490;42.726;23.268;2023-03-26T04:26:16;3.35;;;2.78;;
22646;SDS011;11490;42.726;23.268;2023-03-26T04:28:48;4.25;;;3.33;;
22646;SDS011;11490;42.726;23.268;2023-03-26T04:31:19;3.58;;;2.47;;
22646;SDS011;11490;42.726;23.268;2023-03-26T04:33:48;3.03;;;2.45;;
22646;SDS011;11490;42.726;23.268;2023-03-26T04:36:18;3.33;;;2.78;;
22646;SDS011;11490;42.726;23.268;2023-03-26T04:38:51;4.50;;;3.03;;
22646;SDS011;11490;42.726;23.268;2023-03-26T04:41:19;5.00;;;3.05;;
22646;SDS011;11490;42.726;23.268;2023-03-26T04:43:46;3.88;;;2.80;;
22646;SDS011;11490;42.726;23.268;2023-03-26T04:46:14;3.00;;;2.45;;
22646;SDS011;11490;42.726;23.268;2023-03-26T04:48:42;4.05;;;3.13;;
22646;SDS011;11490;42.726;23.268;2023-03-26T04:51:08;3.88;;;2.85;;
22646;SDS011;11490;42.726;23.268;2023-03-26T04:53:41;4.18;;;3.08;;
22646;SDS011;11490;42.726;23.268;2023-03-26T04:56:26;4.38;;;2.95;;
22646;SDS011;11490;42.726;23.268;2023-03-26T04:58:59;4.88;;;3.30;;
22646;SDS011;11490;42.726;23.268;2023-03-26T05:01:25;3.80;;;3.00;;
22646;SDS011;11490;42.726;23.268;2023-03-26T05:03:54;5.38;;;3.40;;
22646;SDS011;11490;42.726;23.268;2023-03-26T05:06:24;4.70;;;3.78;;
22646;SDS011;11490;42.726;23.268;2023-03-26T05:08:53;8.20;;;4.22;;
22646;SDS011;11490;42.726;23.268;2023-03-26T05:11:19;4.20;;;3.58;;
22646;SDS011;11490;42.726;23.268;2023-03-26T05:13:44;5.40;;;3.45;;
22646;SDS011;11490;42.726;23.268;2023-03-26T05:16:14;6.18;;;4.75;;
22646;SDS011;11490;42.726;23.268;2023-03-26T05:18:39;5.80;;;3.90;;
22646;SDS011;11490;42.726;23.268;2023-03-26T05:21:05;4.20;;;3.13;;
22646;SDS011;11490;42.726;23.268;2023-03-26T05:23:30;4.97;;;3.47;;
22646;SDS011;11490;42.726;23.268;2023-03-26T05:25:56;4.28;;;3.58;;
22646;SDS011;11490;42.726;23.268;2023-03-26T05:28:21;5.03;;;3.95;;
22646;SDS011;11490;42.726;23.268;2023-03-26T05:30:49;4.93;;;4.22;;
22646;SDS011;11490;42.726;23.268;2023-03-26T05:33:17;5.22;;;3.80;;
22646;SDS011;11490;42.726;23.268;2023-03-26T05:35:43;5.53;;;4.28;;
22646;SDS011;11490;42.726;23.268;2023-03-26T05:38:08;5.18;;;3.92;;
22646;SDS011;11490;42.726;23.268;2023-03-26T05:40:37;6.53;;;4.43;;
22646;SDS011;11490;42.726;23.268;2023-03-26T05:43:02;5.68;;;3.97;;
22646;SDS011;11490;42.726;23.268;2023-03-26T05:45:28;6.10;;;3.85;;
22646;SDS011;11490;42.726;23.268;2023-03-26T05:47:55;6.25;;;4.00;;
22646;SDS011;11490;42.726;23.268;2023-03-26T05:50:20;7.75;;;5.05;;
22646;SDS011;11490;42.726;23.268;2023-03-26T05:52:46;7.13;;;4.30;;
22646;SDS011;11490;42.726;23.268;2023-03-26T05:55:11;6.43;;;4.63;;
22646;SDS011;11490;42.726;23.268;2023-03-26T05:57:37;5.78;;;4.15;;
22646;SDS011;11490;42.726;23.268;2023-03-26T06:00:03;6.82;;;4.63;;
22646;SDS011;11490;42.726;23.268;2023-03-26T06:02:32;12.07;;;6.93;;
22646;SDS011;11490;42.726;23.268;2023-03-26T06:04:58;8.00;;;4.93;;
22646;SDS011;11490;42.726;23.268;2023-03-26T06:07:25;6.35;;;3.85;;
22646;SDS011;11490;42.726;23.268;2023-03-26T06:09:51;5.57;;;3.65;;
22646;SDS011;11490;42.726;23.268;2023-03-26T06:12:17;5.50;;;3.92;;
22646;SDS011;11490;42.726;23.268;2023-03-26T06:14:42;8.38;;;4.18;;
22646;SDS011;11490;42.726;23.268;2023-03-26T06:17:08;5.75;;;3.97;;
22646;SDS011;11490;42.726;23.268;2023-03-26T06:19:34;6.10;;;4.15;;
22646;SDS011;11490;42.726;23.268;2023-03-26T06:21:59;6.93;;;4.70;;
22646;SDS011;11490;42.726;23.268;2023-03-26T06:24:28;6.40;;;4.65;;
22646;SDS011;11490;42.726;23.268;2023-03-26T06:26:53;11.93;;;6.45;;
22646;SDS011;11490;42.726;23.268;2023-03-26T06:29:19;8.88;;;4.97;;
22646;SDS011;11490;42.726;23.268;2023-03-26T06:31:44;5.95;;;3.45;;
22646;SDS011;11490;42.726;23.268;2023-03-26T06:34:10;6.60;;;4.20;;
22646;SDS011;11490;42.726;23.268;2023-03-26T06:36:35;5.07;;;3.38;;
22646;SDS011;11490;42.726;23.268;2023-03-26T06:39:01;6.55;;;3.90;;
22646;SDS011;11490;42.726;23.268;2023-03-26T06:41:26;5.90;;;4.07;;
22646;SDS011;11490;42.726;23.268;2023-03-26T06:43:52;6.10;;;4.28;;
22646;SDS011;11490;42.726;23.268;2023-03-26T06:46:17;6.40;;;3.83;;
22646;SDS011;11490;42.726;23.268;2023-03-26T06:48:45;6.10;;;4.60;;
22646;SDS011;11490;42.726;23.268;2023-03-26T06:51:10;10.90;;;6.75;;
22646;SDS011;11490;42.726;23.268;2023-03-26T06:53:36;5.32;;;3.20;;
22646;SDS011;11490;42.726;23.268;2023-03-26T06:56:01;6.35;;;4.05;;
22646;SDS011;11490;42.726;23.268;2023-03-26T06:58:28;6.78;;;3.40;;
22646;SDS011;11490;42.726;23.268;2023-03-26T07:00:54;4.40;;;3.80;;
22646;SDS011;11490;42.726;23.268;2023-03-26T07:03:20;5.32;;;3.78;;
22646;SDS011;11490;42.726;23.268;2023-03-26T07:05:46;5.78;;;3.67;;
22646;SDS011;11490;42.726;23.268;2023-03-26T07:08:11;5.28;;;3.40;;
22646;SDS011;11490;42.726;23.268;2023-03-26T07:10:37;5.93;;;3.83;;
22646;SDS011;11490;42.726;23.268;2023-03-26T07:13:02;4.97;;;3.63;;
22646;SDS011;11490;42.726;23.268;2023-03-26T07:15:28;5.32;;;3.75;;
22646;SDS011;11490;42.726;23.268;2023-03-26T07:17:53;4.95;;;3.40;;
22646;SDS011;11490;42.726;23.268;2023-03-26T07:20:19;6.72;;;4.53;;
22646;SDS011;11490;42.726;23.268;2023-03-26T07:22:45;4.47;;;3.45;;
22646;SDS011;11490;42.726;23.268;2023-03-26T07:25:11;5.43;;;4.65;;
22646;SDS011;11490;42.726;23.268;2023-03-26T07:33:10;5.07;;;3.08;;
22646;SDS011;11490;42.726;23.268;2023-03-26T07:38:53;5.80;;;4.03;;
22646;SDS011;11490;42.726;23.268;2023-03-26T07:46:55;5.30;;;3.80;;
22646;SDS011;11490;42.726;23.268;2023-03-26T07:49:24;5.40;;;3.13;;
22646;SDS011;11490;42.726;23.268;2023-03-26T07:51:52;6.43;;;4.03;;
22646;SDS011;11490;42.726;23.268;2023-03-26T07:54:18;5.00;;;3.50;;
22646;SDS011;11490;42.726;23.268;2023-03-26T07:57:27;4.53;;;2.92;;
22646;SDS011;11490;42.726;23.268;2023-03-26T08:13:05;4.25;;;2.97;;
22646;SDS011;11490;42.726;23.268;2023-03-26T08:22:07;3.85;;;2.80;;
22646;SDS011;11490;42.726;23.268;2023-03-26T08:27:32;4.00;;;2.60;;
22646;SDS011;11490;42.726;23.268;2023-03-26T08:30:13;3.60;;;2.40;;
22646;SDS011;11490;42.726;23.268;2023-03-26T08:32:59;5.15;;;2.95;;
22646;SDS011;11490;42.726;23.268;2023-03-26T08:35:26;4.15;;;2.92;;
22646;SDS011;11490;42.726;23.268;2023-03-26T08:37:52;3.22;;;2.28;;
22646;SDS011;11490;42.726;23.268;2023-03-26T08:40:23;4.13;;;2.72;;
22646;SDS011;11490;42.726;23.268;2023-03-26T08:45:55;4.82;;;2.65;;
22646;SDS011;11490;42.726;23.268;2023-03-26T08:48:42;4.18;;;2.70;;
22646;SDS011;11490;42.726;23.268;2023-03-26T08:59:59;3.58;;;2.35;;
22646;SDS011;11490;42.726;23.268;2023-03-26T09:10:51;2.35;;;1.83;;
22646;SDS011;11490;42.726;23.268;2023-03-26T09:25:12;2.28;;;1.85;;
22646;SDS011;11490;42.726;23.268;2023-03-26T09:33:20;2.35;;;1.55;;
22646;SDS011;11490;42.726;23.268;2023-03-26T09:38:42;3.13;;;1.85;;
22646;SDS011;11490;42.726;23.268;2023-03-26T09:44:13;2.95;;;1.83;;
22646;SDS011;11490;42.726;23.268;2023-03-26T09:49:25;3.83;;;1.50;;
22646;SDS011;11490;42.726;23.268;2023-03-26T09:58:14;4.65;;;1.45;;
22646;SDS011;11490;42.726;23.268;2023-03-26T10:08:57;1.75;;;1.08;;
22646;SDS011;11490;42.726;23.268;2023-03-26T10:17:16;1.15;;;1.05;;
22646;SDS011;11490;42.726;23.268;2023-03-26T10:19:56;1.63;;;1.20;;
22646;SDS011;11490;42.726;23.268;2023-03-26T10:49:43;1.48;;;1.23;;
22646;SDS011;11490;42.726;23.268;2023-03-26T10:52:40;2.17;;;1.52;;
22646;SDS011;11490;42.726;23.268;2023-03-26T10:55:15;6.47;;;1.23;;
22646;SDS011;11490;42.726;23.268;2023-03-26T10:57:49;1.45;;;1.20;;
22646;SDS011;11490;42.726;23.268;2023-03-26T11:00:19;2.10;;;1.15;;
22646;SDS011;11490;42.726;23.268;2023-03-26T11:14:20;1.65;;;0.95;;
22646;SDS011;11490;42.726;23.268;2023-03-26T11:16:50;1.83;;;1.20;;
22646;SDS011;11490;42.726;23.268;2023-03-26T11:22:02;0.90;;;0.90;;
22646;SDS011;11490;42.726;23.268;2023-03-26T11:25:43;2.75;;;1.33;;
22646;SDS011;11490;42.726;23.268;2023-03-26T11:27:51;1.88;;;1.13;;
22646;SDS011;11490;42.726;23.268;2023-03-26T11:30:26;2.88;;;1.08;;
22646;SDS011;11490;42.726;23.268;2023-03-26T11:32:59;1.45;;;1.00;;
22646;SDS011;11490;42.726;23.268;2023-03-26T11:35:31;2.05;;;1.30;;
22646;SDS011;11490;42.726;23.268;2023-03-26T11:38:04;2.53;;;1.20;;
22646;SDS011;11490;42.726;23.268;2023-03-26T11:40:46;1.58;;;1.20;;
22646;SDS011;11490;42.726;23.268;2023-03-26T11:43:17;1.88;;;1.10;;
22646;SDS011;11490;42.726;23.268;2023-03-26T11:45:48;1.42;;;0.90;;
22646;SDS011;11490;42.726;23.268;2023-03-26T11:48:27;1.23;;;1.00;;
22646;SDS011;11490;42.726;23.268;2023-03-26T11:51:00;1.35;;;1.00;;
22646;SDS011;11490;42.726;23.268;2023-03-26T11:53:32;0.77;;;0.77;;
22646;SDS011;11490;42.726;23.268;2023-03-26T11:58:30;1.58;;;1.00;;
22646;SDS011;11490;42.726;23.268;2023-03-26T12:01:04;1.77;;;1.27;;
22646;SDS011;11490;42.726;23.268;2023-03-26T12:04:10;1.00;;;0.90;;
22646;SDS011;11490;42.726;23.268;2023-03-26T12:06:49;1.55;;;1.20;;
22646;SDS011;11490;42.726;23.268;2023-03-26T12:09:17;1.30;;;0.93;;
22646;SDS011;11490;42.726;23.268;2023-03-26T12:11:43;3.78;;;1.40;;
22646;SDS011;11490;42.726;23.268;2023-03-26T12:14:21;1.08;;;0.98;;
22646;SDS011;11490;42.726;23.268;2023-03-26T12:19:26;1.40;;;1.23;;
22646;SDS011;11490;42.726;23.268;2023-03-26T12:21:59;2.00;;;1.17;;
22646;SDS011;11490;42.726;23.268;2023-03-26T12:24:32;1.48;;;1.00;;
22646;SDS011;11490;42.726;23.268;2023-03-26T12:29:51;2.05;;;0.93;;
22646;SDS011;11490;42.726;23.268;2023-03-26T12:32:30;0.90;;;0.90;;
22646;SDS011;11490;42.726;23.268;2023-03-26T12:34:57;1.45;;;0.90;;
22646;SDS011;11490;42.726;23.268;2023-03-26T12:37:39;0.80;;;0.80;;
22646;SDS011;11490;42.726;23.268;2023-03-26T12:43:19;1.05;;;0.95;;
22646;SDS011;11490;42.726;23.268;2023-03-26T12:46:00;1.40;;;1.15;;
22646;SDS011;11490;42.726;23.268;2023-03-26T12:48:26;2.15;;;1.20;;
22646;SDS011;11490;42.726;23.268;2023-03-26T12:51:07;1.92;;;1.25;;
22646;SDS011;11490;42.726;23.268;2023-03-26T13:10:32;1.25;;;1.00;;
22646;SDS011;11490;42.726;23.268;2023-03-26T13:16:26;0.80;;;0.80;;
22646;SDS011;11490;42.726;23.268;2023-03-26T13:19:09;1.02;;;0.80;;
22646;SDS011;11490;42.726;23.268;2023-03-26T13:29:54;2.15;;;1.08;;
22646;SDS011;11490;42.726;23.268;2023-03-26T13:51:27;0.85;;;0.82;;
22646;SDS011;11490;42.726;23.268;2023-03-26T13:54:00;1.20;;;0.90;;
22646;SDS011;11490;42.726;23.268;2023-03-26T13:56:37;1.27;;;0.98;;
22646;SDS011;11490;42.726;23.268;2023-03-26T13:59:51;1.27;;;1.00;;
22646;SDS011;11490;42.726;23.268;2023-03-26T14:04:48;0.80;;;0.80;;
22646;SDS011;11490;42.726;23.268;2023-03-26T14:07:22;2.33;;;0.90;;
22646;SDS011;11490;42.726;23.268;2023-03-26T14:09:55;0.82;;;0.70;;
22646;SDS011;11490;42.726;23.268;2023-03-26T14:26:25;0.77;;;0.77;;
22646;SDS011;11490;42.726;23.268;2023-03-26T14:29:12;0.88;;;0.88;;
22646;SDS011;11490;42.726;23.268;2023-03-26T14:34:56;0.70;;;0.70;;
22646;SDS011;11490;42.726;23.268;2023-03-26T14:41:00;0.60;;;0.60;;
22646;SDS011;11490;42.726;23.268;2023-03-26T14:54:38;1.15;;;1.05;;
22646;SDS011;11490;42.726;23.268;2023-03-26T14:57:16;7.75;;;0.90;;
22646;SDS011;11490;42.726;23.268;2023-03-26T15:23:13;1.90;;;1.13;;
22646;SDS011;11490;42.726;23.268;2023-03-26T15:53:27;1.45;;;1.13;;
22646;SDS011;11490;42.726;23.268;2023-03-26T15:56:29;3.80;;;2.22;;
22646;SDS011;11490;42.726;23.268;2023-03-26T15:59:14;3.50;;;2.08;;
22646;SDS011;11490;42.726;23.268;2023-03-26T16:01:59;2.85;;;1.20;;
22646;SDS011;11490;42.726;23.268;2023-03-26T16:15:49;1.38;;;0.80;;
22646;SDS011;11490;42.726;23.268;2023-03-26T16:18:35;2.33;;;1.48;;
22646;SDS011;11490;42.726;23.268;2023-03-26T16:23:56;5.25;;;2.90;;
22646;SDS011;11490;42.726;23.268;2023-03-26T16:29:14;10.20;;;4.10;;
22646;SDS011;11490;42.726;23.268;2023-03-26T16:34:39;5.50;;;3.05;;
22646;SDS011;11490;42.726;23.268;2023-03-26T16:45:33;5.80;;;2.97;;
22646;SDS011;11490;42.726;23.268;2023-03-26T16:51:35;53.22;;;20.50;;
22646;SDS011;11490;42.726;23.268;2023-03-26T16:54:23;73.45;;;26.85;;
22646;SDS011;11490;42.726;23.268;2023-03-26T16:56:59;83.00;;;29.55;;
22646;SDS011;11490;42.726;23.268;2023-03-26T17:10:40;92.32;;;32.20;;
22646;SDS011;11490;42.726;23.268;2023-03-26T17:21:55;56.13;;;23.10;;
22646;SDS011;11490;42.726;23.268;2023-03-26T17:32:52;65.32;;;25.60;;
22646;SDS011;11490;42.726;23.268;2023-03-26T17:40:54;43.35;;;14.60;;
22646;SDS011;11490;42.726;23.268;2023-03-26T17:51:53;32.72;;;15.07;;
22646;SDS011;11490;42.726;23.268;2023-03-26T17:54:25;30.95;;;14.07;;
22646;SDS011;11490;42.726;23.268;2023-03-26T17:56:59;37.20;;;13.52;;
22646;SDS011;11490;42.726;23.268;2023-03-26T17:59:33;24.67;;;11.93;;
22646;SDS011;11490;42.726;23.268;2023-03-26T18:02:01;27.02;;;12.52;;
22646;SDS011;11490;42.726;23.268;2023-03-26T18:04:34;28.33;;;12.65;;
22646;SDS011;11490;42.726;23.268;2023-03-26T18:10:30;32.25;;;14.73;;
22646;SDS011;11490;42.726;23.268;2023-03-26T18:18:13;23.80;;;11.15;;
22646;SDS011;11490;42.726;23.268;2023-03-26T18:20:56;15.20;;;8.35;;
22646;SDS011;11490;42.726;23.268;2023-03-26T18:23:40;19.52;;;10.02;;
22646;SDS011;11490;42.726;23.268;2023-03-26T18:26:15;16.27;;;10.35;;
22646;SDS011;11490;42.726;23.268;2023-03-26T18:28:45;20.05;;;12.32;;
22646;SDS011;11490;42.726;23.268;2023-03-26T18:31:16;21.65;;;12.05;;
22646;SDS011;11490;42.726;23.268;2023-03-26T18:33:43;26.33;;;13.25;;
22646;SDS011;11490;42.726;23.268;2023-03-26T18:36:11;25.70;;;13.10;;
22646;SDS011;11490;42.726;23.268;2023-03-26T18:38:38;25.08;;;12.82;;
22646;SDS011;11490;42.726;23.268;2023-03-26T18:41:05;27.50;;;13.88;;
22646;SDS011;11490;42.726;23.268;2023-03-26T18:43:32;30.13;;;15.02;;
22646;SDS011;11490;42.726;23.268;2023-03-26T18:45:59;25.92;;;13.80;;
22646;SDS011;11490;42.726;23.268;2023-03-26T18:48:25;24.00;;;12.80;;
22646;SDS011;11490;42.726;23.268;2023-03-26T18:50:53;20.98;;;11.73;;
22646;SDS011;11490;42.726;23.268;2023-03-26T18:53:24;17.10;;;10.77;;
22646;SDS011;11490;42.726;23.268;2023-03-26T18:55:54;18.60;;;11.35;;
22646;SDS011;11490;42.726;23.268;2023-03-26T18:58:21;22.33;;;11.98;;
22646;SDS011;11490;42.726;23.268;2023-03-26T19:00:57;20.45;;;11.55;;
22646;SDS011;11490;42.726;23.268;2023-03-26T19:03:26;20.05;;;11.88;;
22646;SDS011;11490;42.726;23.268;2023-03-26T19:05:55;22.35;;;13.25;;
22646;SDS011;11490;42.726;23.268;2023-03-26T19:08:22;23.95;;;13.57;;
22646;SDS011;11490;42.726;23.268;2023-03-26T19:10:50;33.13;;;15.02;;
22646;SDS011;11490;42.726;23.268;2023-03-26T19:13:18;33.83;;;14.77;;
22646;SDS011;11490;42.726;23.268;2023-03-26T19:15:45;27.92;;;14.57;;
22646;SDS011;11490;42.726;23.268;2023-03-26T19:18:18;31.83;;;14.18;;
22646;SDS011;11490;42.726;23.268;2023-03-26T19:23:22;31.17;;;15.57;;
22646;SDS011;11490;42.726;23.268;2023-03-26T19:25:52;47.58;;;26.73;;
22646;SDS011;11490;42.726;23.268;2023-03-26T19:28:22;28.70;;;16.75;;
22646;SDS011;11490;42.726;23.268;2023-03-26T19:30:55;31.42;;;16.98;;
22646;SDS011;11490;42.726;23.268;2023-03-26T19:33:22;31.85;;;17.35;;
22646;SDS011;11490;42.726;23.268;2023-03-26T19:36:01;39.55;;;20.65;;
22646;SDS011;11490;42.726;23.268;2023-03-26T19:38:36;31.60;;;17.13;;
22646;SDS011;11490;42.726;23.268;2023-03-26T19:41:11;30.90;;;17.02;;
22646;SDS011;11490;42.726;23.268;2023-03-26T19:43:48;32.30;;;15.40;;
22646;SDS011;11490;42.726;23.268;2023-03-26T19:46:16;37.20;;;12.98;;
22646;SDS011;11490;42.726;23.268;2023-03-26T19:48:43;23.45;;;13.27;;
22646;SDS011;11490;42.726;23.268;2023-03-26T19:51:23;23.77;;;12.70;;
22646;SDS011;11490;42.726;23.268;2023-03-26T19:54:00;29.65;;;15.40;;
22646;SDS011;11490;42.726;23.268;2023-03-26T19:56:30;22.23;;;13.88;;
22646;SDS011;11490;42.726;23.268;2023-03-26T19:58:55;34.00;;;16.77;;
22646;SDS011;11490;42.726;23.268;2023-03-26T20:01:23;33.72;;;17.70;;
22646;SDS011;11490;42.726;23.268;2023-03-26T20:03:51;151.77;;;62.70;;
22646;SDS011;11490;42.726;23.268;2023-03-26T20:06:19;72.22;;;31.60;;
22646;SDS011;11490;42.726;23.268;2023-03-26T20:08:46;58.95;;;28.67;;
22646;SDS011;11490;42.726;23.268;2023-03-26T20:11:19;63.10;;;29.15;;
22646;SDS011;11490;42.726;23.268;2023-03-26T20:13:56;40.42;;;18.92;;
22646;SDS011;11490;42.726;23.268;2023-03-26T20:16:25;29.75;;;15.50;;
22646;SDS011;11490;42.726;23.268;2023-03-26T20:18:55;26.10;;;13.50;;
22646;SDS011;11490;42.726;23.268;2023-03-26T20:21:22;34.92;;;15.20;;
22646;SDS011;11490;42.726;23.268;2023-03-26T20:23:49;26.20;;;14.20;;
22646;SDS011;11490;42.726;23.268;2023-03-26T20:26:18;20.85;;;11.73;;
22646;SDS011;11490;42.726;23.268;2023-03-26T20:28:44;23.90;;;12.93;;
22646;SDS011;11490;42.726;23.268;2023-03-26T20:31:13;23.65;;;12.60;;
22646;SDS011;11490;42.726;23.268;2023-03-26T20:33:42;17.10;;;10.70;;
22646;SDS011;11490;42.726;23.268;2023-03-26T20:36:11;22.00;;;12.00;;
22646;SDS011;11490;42.726;23.268;2023-03-26T20:38:37;32.65;;;11.77;;
22646;SDS011;11490;42.726;23.268;2023-03-26T20:41:04;20.05;;;10.30;;
22646;SDS011;11490;42.726;23.268;2023-03-26T20:43:30;17.42;;;8.88;;
22646;SDS011;11490;42.726;23.268;2023-03-26T20:45:56;16.77;;;9.15;;
22646;SDS011;11490;42.726;23.268;2023-03-26T20:48:22;23.77;;;9.80;;
22646;SDS011;11490;42.726;23.268;2023-03-26T20:50:50;19.70;;;9.65;;
22646;SDS011;11490;42.726;23.268;2023-03-26T20:53:16;18.17;;;11.10;;
22646;SDS011;11490;42.726;23.268;2023-03-26T20:55:42;31.35;;;14.85;;
22646;SDS011;11490;42.726;23.268;2023-03-26T20:58:11;31.13;;;14.68;;
22646;SDS011;11490;42.726;23.268;2023-03-26T21:00:41;42.45;;;22.58;;
22646;SDS011;11490;42.726;23.268;2023-03-26T21:03:08;63.03;;;32.88;;
22646;SDS011;11490;42.726;23.268;2023-03-26T21:05:37;66.78;;;33.28;;
22646;SDS011;11490;42.726;23.268;2023-03-26T21:08:04;72.65;;;36.10;;
22646;SDS011;11490;42.726;23.268;2023-03-26T21:10:30;59.45;;;32.72;;
22646;SDS011;11490;42.726;23.268;2023-03-26T21:13:12;56.35;;;29.38;;
22646;SDS011;11490;42.726;23.268;2023-03-26T21:15:47;55.83;;;25.98;;
22646;SDS011;11490;42.726;23.268;2023-03-26T21:18:13;45.45;;;25.65;;
22646;SDS011;11490;42.726;23.268;2023-03-26T21:20:39;30.73;;;17.48;;
22646;SDS011;11490;42.726;23.268;2023-03-26T21:23:23;28.48;;;14.32;;
22646;SDS011;11490;42.726;23.268;2023-03-26T21:28:46;31.58;;;14.93;;
22646;SDS011;11490;42.726;23.268;2023-03-26T21:31:17;21.70;;;13.20;;